sensor_id;sensor_type;location;lat;lon;timestamp;temperature;humidity
75363;DHT22;64122;51.988;5.892;2023-06-26T00:00:13;26.22;50.73
75363;DHT22;64122;51.988;5.892;2023-06-26T00:02:42;26.15;51.00
75363;DHT22;64122;51.988;5.892;2023-06-26T00:05:11;26.10;51.33
75363;DHT22;64122;51.988;5.892;2023-06-26T00:07:43;26.01;51.20
75363;DHT22;64122;51.988;5.892;2023-06-26T00:10:12;25.97;51.56
75363;DHT22;64122;51.988;5.892;2023-06-26T00:12:41;25.91;51.73
75363;DHT22;64122;51.988;5.892;2023-06-26T00:15:10;25.87;51.95
75363;DHT22;64122;51.988;5.892;2023-06-26T00:17:39;25.80;52.22
75363;DHT22;64122;51.988;5.892;2023-06-26T00:20:09;25.75;52.24
75363;DHT22;64122;51.988;5.892;2023-06-26T00:22:43;25.68;52.02
75363;DHT22;64122;51.988;5.892;2023-06-26T00:25:12;25.64;52.19
75363;DHT22;64122;51.988;5.892;2023-06-26T00:27:41;25.61;51.82
75363;DHT22;64122;51.988;5.892;2023-06-26T00:30:11;25.58;52.14
75363;DHT22;64122;51.988;5.892;2023-06-26T00:32:41;25.54;52.50
75363;DHT22;64122;51.988;5.892;2023-06-26T00:35:10;25.50;51.90
75363;DHT22;64122;51.988;5.892;2023-06-26T00:37:39;25.48;52.36
75363;DHT22;64122;51.988;5.892;2023-06-26T00:40:12;25.43;52.28
75363;DHT22;64122;51.988;5.892;2023-06-26T00:42:42;25.44;52.30
75363;DHT22;64122;51.988;5.892;2023-06-26T00:45:11;25.43;52.20
75363;DHT22;64122;51.988;5.892;2023-06-26T00:47:40;25.40;52.49
75363;DHT22;64122;51.988;5.892;2023-06-26T00:50:10;25.40;52.09
75363;DHT22;64122;51.988;5.892;2023-06-26T00:52:39;25.40;52.19
75363;DHT22;64122;51.988;5.892;2023-06-26T00:55:12;25.36;52.63
75363;DHT22;64122;51.988;5.892;2023-06-26T00:57:43;25.33;52.76
75363;DHT22;64122;51.988;5.892;2023-06-26T01:00:15;25.30;52.14
75363;DHT22;64122;51.988;5.892;2023-06-26T01:02:44;25.30;52.19
75363;DHT22;64122;51.988;5.892;2023-06-26T01:05:13;25.32;52.15
75363;DHT22;64122;51.988;5.892;2023-06-26T01:07:49;25.32;52.14
75363;DHT22;64122;51.988;5.892;2023-06-26T01:10:21;25.31;51.98
75363;DHT22;64122;51.988;5.892;2023-06-26T01:12:53;25.30;52.09
75363;DHT22;64122;51.988;5.892;2023-06-26T01:15:23;25.31;52.41
75363;DHT22;64122;51.988;5.892;2023-06-26T01:17:52;25.29;52.56
75363;DHT22;64122;51.988;5.892;2023-06-26T01:20:30;25.28;52.68
75363;DHT22;64122;51.988;5.892;2023-06-26T01:23:05;25.23;52.61
75363;DHT22;64122;51.988;5.892;2023-06-26T01:25:56;25.20;52.82
75363;DHT22;64122;51.988;5.892;2023-06-26T01:28:33;25.19;52.93
75363;DHT22;64122;51.988;5.892;2023-06-26T01:31:04;25.19;53.25
75363;DHT22;64122;51.988;5.892;2023-06-26T01:33:34;25.17;53.62
75363;DHT22;64122;51.988;5.892;2023-06-26T01:36:04;25.13;53.39
75363;DHT22;64122;51.988;5.892;2023-06-26T01:38:35;25.10;53.63
75363;DHT22;64122;51.988;5.892;2023-06-26T01:41:05;25.08;53.53
75363;DHT22;64122;51.988;5.892;2023-06-26T01:43:50;25.04;53.34
75363;DHT22;64122;51.988;5.892;2023-06-26T01:46:27;25.00;53.58
75363;DHT22;64122;51.988;5.892;2023-06-26T01:49:03;24.95;53.74
75363;DHT22;64122;51.988;5.892;2023-06-26T01:51:41;24.90;53.84
75363;DHT22;64122;51.988;5.892;2023-06-26T01:54:16;24.85;54.00
75363;DHT22;64122;51.988;5.892;2023-06-26T01:56:49;24.80;54.13
75363;DHT22;64122;51.988;5.892;2023-06-26T01:59:22;24.76;54.30
75363;DHT22;64122;51.988;5.892;2023-06-26T02:01:52;24.70;54.46
75363;DHT22;64122;51.988;5.892;2023-06-26T02:04:21;24.65;54.46
75363;DHT22;64122;51.988;5.892;2023-06-26T02:06:50;24.63;54.59
75363;DHT22;64122;51.988;5.892;2023-06-26T02:09:21;24.60;54.64
75363;DHT22;64122;51.988;5.892;2023-06-26T02:11:50;24.58;54.54
75363;DHT22;64122;51.988;5.892;2023-06-26T02:14:22;24.50;54.45
75363;DHT22;64122;51.988;5.892;2023-06-26T02:16:51;24.51;54.29
75363;DHT22;64122;51.988;5.892;2023-06-26T02:19:20;24.49;53.79
75363;DHT22;64122;51.988;5.892;2023-06-26T02:21:51;24.46;53.59
75363;DHT22;64122;51.988;5.892;2023-06-26T02:24:21;24.38;53.47
75363;DHT22;64122;51.988;5.892;2023-06-26T02:26:50;24.33;53.29
75363;DHT22;64122;51.988;5.892;2023-06-26T02:29:22;24.26;53.25
75363;DHT22;64122;51.988;5.892;2023-06-26T02:31:51;24.26;53.24
75363;DHT22;64122;51.988;5.892;2023-06-26T02:34:22;24.21;53.26
75363;DHT22;64122;51.988;5.892;2023-06-26T02:36:51;24.19;53.30
75363;DHT22;64122;51.988;5.892;2023-06-26T02:39:22;24.15;53.27
75363;DHT22;64122;51.988;5.892;2023-06-26T02:41:51;24.11;53.37
75363;DHT22;64122;51.988;5.892;2023-06-26T02:44:25;24.04;53.49
75363;DHT22;64122;51.988;5.892;2023-06-26T02:46:55;23.99;53.60
75363;DHT22;64122;51.988;5.892;2023-06-26T02:49:24;23.96;53.78
75363;DHT22;64122;51.988;5.892;2023-06-26T02:51:53;23.90;54.02
75363;DHT22;64122;51.988;5.892;2023-06-26T02:54:28;23.88;54.09
75363;DHT22;64122;51.988;5.892;2023-06-26T02:57:02;23.85;54.24
75363;DHT22;64122;51.988;5.892;2023-06-26T02:59:35;23.75;54.54
75363;DHT22;64122;51.988;5.892;2023-06-26T03:02:06;23.69;54.82
75363;DHT22;64122;51.988;5.892;2023-06-26T03:04:40;23.60;55.26
75363;DHT22;64122;51.988;5.892;2023-06-26T03:07:12;23.52;55.49
75363;DHT22;64122;51.988;5.892;2023-06-26T03:09:42;23.47;55.71
75363;DHT22;64122;51.988;5.892;2023-06-26T03:12:12;23.45;55.84
75363;DHT22;64122;51.988;5.892;2023-06-26T03:14:45;23.39;56.07
75363;DHT22;64122;51.988;5.892;2023-06-26T03:17:14;23.34;56.39
75363;DHT22;64122;51.988;5.892;2023-06-26T03:19:46;23.30;56.46
75363;DHT22;64122;51.988;5.892;2023-06-26T03:22:21;23.26;56.76
75363;DHT22;64122;51.988;5.892;2023-06-26T03:24:50;23.21;56.97
75363;DHT22;64122;51.988;5.892;2023-06-26T03:27:19;23.16;57.23
75363;DHT22;64122;51.988;5.892;2023-06-26T03:29:52;23.15;57.35
75363;DHT22;64122;51.988;5.892;2023-06-26T03:32:23;23.17;57.39
75363;DHT22;64122;51.988;5.892;2023-06-26T03:34:52;23.17;57.51
75363;DHT22;64122;51.988;5.892;2023-06-26T03:37:22;23.11;57.70
75363;DHT22;64122;51.988;5.892;2023-06-26T03:39:52;23.05;57.93
75363;DHT22;64122;51.988;5.892;2023-06-26T03:42:22;23.02;58.10
75363;DHT22;64122;51.988;5.892;2023-06-26T03:44:54;22.94;58.41
75363;DHT22;64122;51.988;5.892;2023-06-26T03:47:23;22.94;58.49
75363;DHT22;64122;51.988;5.892;2023-06-26T03:49:52;22.93;58.69
75363;DHT22;64122;51.988;5.892;2023-06-26T03:52:21;22.87;58.90
75363;DHT22;64122;51.988;5.892;2023-06-26T03:54:50;22.80;59.17
75363;DHT22;64122;51.988;5.892;2023-06-26T03:57:20;22.81;59.28
75363;DHT22;64122;51.988;5.892;2023-06-26T03:59:49;22.82;59.29
75363;DHT22;64122;51.988;5.892;2023-06-26T04:02:21;22.83;59.34
75363;DHT22;64122;51.988;5.892;2023-06-26T04:04:50;22.85;59.43
75363;DHT22;64122;51.988;5.892;2023-06-26T04:07:21;22.78;59.70
75363;DHT22;64122;51.988;5.892;2023-06-26T04:09:50;22.73;59.83
75363;DHT22;64122;51.988;5.892;2023-06-26T04:12:20;22.69;60.03
75363;DHT22;64122;51.988;5.892;2023-06-26T04:14:49;22.70;60.08
75363;DHT22;64122;51.988;5.892;2023-06-26T04:17:21;22.65;60.35
75363;DHT22;64122;51.988;5.892;2023-06-26T04:19:50;22.67;60.38
75363;DHT22;64122;51.988;5.892;2023-06-26T04:22:19;22.73;60.31
75363;DHT22;64122;51.988;5.892;2023-06-26T04:24:49;22.80;60.22
75363;DHT22;64122;51.988;5.892;2023-06-26T04:27:18;22.81;60.27
75363;DHT22;64122;51.988;5.892;2023-06-26T04:29:47;22.78;60.38
75363;DHT22;64122;51.988;5.892;2023-06-26T04:32:16;22.80;60.38
75363;DHT22;64122;51.988;5.892;2023-06-26T04:34:48;22.78;60.50
75363;DHT22;64122;51.988;5.892;2023-06-26T04:37:17;22.73;60.64
75363;DHT22;64122;51.988;5.892;2023-06-26T04:39:47;22.71;60.82
75363;DHT22;64122;51.988;5.892;2023-06-26T04:42:16;22.77;60.70
75363;DHT22;64122;51.988;5.892;2023-06-26T04:44:48;22.76;60.76
75363;DHT22;64122;51.988;5.892;2023-06-26T04:47:18;22.73;60.79
75363;DHT22;64122;51.988;5.892;2023-06-26T04:49:49;22.69;60.83
75363;DHT22;64122;51.988;5.892;2023-06-26T04:52:19;22.65;60.93
75363;DHT22;64122;51.988;5.892;2023-06-26T04:54:48;22.61;61.07
75363;DHT22;64122;51.988;5.892;2023-06-26T04:57:18;22.64;61.04
75363;DHT22;64122;51.988;5.892;2023-06-26T04:59:47;22.58;61.18
75363;DHT22;64122;51.988;5.892;2023-06-26T05:02:16;22.57;61.17
75363;DHT22;64122;51.988;5.892;2023-06-26T05:04:45;22.56;61.21
75363;DHT22;64122;51.988;5.892;2023-06-26T05:07:18;22.56;61.18
75363;DHT22;64122;51.988;5.892;2023-06-26T05:09:47;22.61;61.04
75363;DHT22;64122;51.988;5.892;2023-06-26T05:12:16;22.63;60.92
75363;DHT22;64122;51.988;5.892;2023-06-26T05:14:45;22.65;60.86
75363;DHT22;64122;51.988;5.892;2023-06-26T05:17:15;22.66;60.88
75363;DHT22;64122;51.988;5.892;2023-06-26T05:19:44;22.72;60.81
75363;DHT22;64122;51.988;5.892;2023-06-26T05:22:14;22.76;60.43
75363;DHT22;64122;51.988;5.892;2023-06-26T05:24:46;22.80;60.40
75363;DHT22;64122;51.988;5.892;2023-06-26T05:27:16;22.81;60.28
75363;DHT22;64122;51.988;5.892;2023-06-26T05:29:49;22.85;60.07
75363;DHT22;64122;51.988;5.892;2023-06-26T05:32:18;22.90;60.04
75363;DHT22;64122;51.988;5.892;2023-06-26T05:34:48;22.97;59.78
75363;DHT22;64122;51.988;5.892;2023-06-26T05:37:19;23.09;59.35
75363;DHT22;64122;51.988;5.892;2023-06-26T05:39:52;23.25;58.77
75363;DHT22;64122;51.988;5.892;2023-06-26T05:42:22;23.30;58.54
75363;DHT22;64122;51.988;5.892;2023-06-26T05:44:51;23.32;58.33
75363;DHT22;64122;51.988;5.892;2023-06-26T05:47:20;23.36;58.10
75363;DHT22;64122;51.988;5.892;2023-06-26T05:49:50;23.29;57.72
75363;DHT22;64122;51.988;5.892;2023-06-26T05:52:19;23.25;57.64
75363;DHT22;64122;51.988;5.892;2023-06-26T05:54:52;23.29;57.24
75363;DHT22;64122;51.988;5.892;2023-06-26T05:57:25;23.28;57.14
75363;DHT22;64122;51.988;5.892;2023-06-26T05:59:56;23.27;57.03
75363;DHT22;64122;51.988;5.892;2023-06-26T06:02:25;23.30;56.74
75363;DHT22;64122;51.988;5.892;2023-06-26T06:04:54;23.37;56.49
75363;DHT22;64122;51.988;5.892;2023-06-26T06:07:24;23.42;56.17
75363;DHT22;64122;51.988;5.892;2023-06-26T06:09:55;23.45;55.84
75363;DHT22;64122;51.988;5.892;2023-06-26T06:12:25;23.49;55.29
75363;DHT22;64122;51.988;5.892;2023-06-26T06:14:55;23.51;54.82
75363;DHT22;64122;51.988;5.892;2023-06-26T06:17:24;23.54;54.28
75363;DHT22;64122;51.988;5.892;2023-06-26T06:19:53;23.58;54.27
75363;DHT22;64122;51.988;5.892;2023-06-26T06:22:22;23.62;53.97
75363;DHT22;64122;51.988;5.892;2023-06-26T06:24:54;23.66;53.84
75363;DHT22;64122;51.988;5.892;2023-06-26T06:27:23;23.70;53.62
75363;DHT22;64122;51.988;5.892;2023-06-26T06:29:53;23.72;53.11
75363;DHT22;64122;51.988;5.892;2023-06-26T06:32:22;23.71;53.16
75363;DHT22;64122;51.988;5.892;2023-06-26T06:34:51;23.71;52.75
75363;DHT22;64122;51.988;5.892;2023-06-26T06:37:20;23.73;52.46
75363;DHT22;64122;51.988;5.892;2023-06-26T06:39:49;23.81;52.21
75363;DHT22;64122;51.988;5.892;2023-06-26T06:42:21;23.82;51.79
75363;DHT22;64122;51.988;5.892;2023-06-26T06:44:50;23.94;51.44
75363;DHT22;64122;51.988;5.892;2023-06-26T06:47:19;24.11;50.59
75363;DHT22;64122;51.988;5.892;2023-06-26T06:49:48;24.33;49.89
75363;DHT22;64122;51.988;5.892;2023-06-26T06:52:18;24.58;49.47
75363;DHT22;64122;51.988;5.892;2023-06-26T06:54:54;24.68;49.53
75363;DHT22;64122;51.988;5.892;2023-06-26T06:57:27;24.75;49.26
75363;DHT22;64122;51.988;5.892;2023-06-26T06:59:56;24.70;49.32
75363;DHT22;64122;51.988;5.892;2023-06-26T07:02:25;24.58;49.63
75363;DHT22;64122;51.988;5.892;2023-06-26T07:04:54;24.54;49.77
75363;DHT22;64122;51.988;5.892;2023-06-26T07:07:28;24.55;49.71
75363;DHT22;64122;51.988;5.892;2023-06-26T07:09:58;24.59;49.61
75363;DHT22;64122;51.988;5.892;2023-06-26T07:12:30;24.60;49.56
75363;DHT22;64122;51.988;5.892;2023-06-26T07:15:00;24.70;49.45
75363;DHT22;64122;51.988;5.892;2023-06-26T07:17:30;24.92;48.79
75363;DHT22;64122;51.988;5.892;2023-06-26T07:20:00;25.38;47.96
75363;DHT22;64122;51.988;5.892;2023-06-26T07:22:31;25.52;47.47
75363;DHT22;64122;51.988;5.892;2023-06-26T07:25:00;25.58;47.36
75363;DHT22;64122;51.988;5.892;2023-06-26T07:27:33;25.57;47.47
75363;DHT22;64122;51.988;5.892;2023-06-26T07:30:03;25.54;47.45
75363;DHT22;64122;51.988;5.892;2023-06-26T07:32:35;25.53;47.25
75363;DHT22;64122;51.988;5.892;2023-06-26T07:35:05;25.63;47.27
75363;DHT22;64122;51.988;5.892;2023-06-26T07:37:34;25.68;47.22
75363;DHT22;64122;51.988;5.892;2023-06-26T07:40:04;25.64;46.97
75363;DHT22;64122;51.988;5.892;2023-06-26T07:42:36;25.51;47.15
75363;DHT22;64122;51.988;5.892;2023-06-26T07:45:07;25.65;46.97
75363;DHT22;64122;51.988;5.892;2023-06-26T07:47:38;25.94;46.75
75363;DHT22;64122;51.988;5.892;2023-06-26T07:50:08;26.02;46.41
75363;DHT22;64122;51.988;5.892;2023-06-26T07:52:37;26.21;46.15
75363;DHT22;64122;51.988;5.892;2023-06-26T07:55:07;26.22;46.00
75363;DHT22;64122;51.988;5.892;2023-06-26T07:57:39;26.24;46.12
75363;DHT22;64122;51.988;5.892;2023-06-26T08:00:09;26.45;45.35
75363;DHT22;64122;51.988;5.892;2023-06-26T08:02:41;26.31;45.65
75363;DHT22;64122;51.988;5.892;2023-06-26T08:05:10;26.23;45.73
75363;DHT22;64122;51.988;5.892;2023-06-26T08:07:39;25.98;45.80
75363;DHT22;64122;51.988;5.892;2023-06-26T08:10:09;27.83;41.76
75363;DHT22;64122;51.988;5.892;2023-06-26T08:12:42;30.38;37.01
75363;DHT22;64122;51.988;5.892;2023-06-26T08:15:11;31.40;35.22
75363;DHT22;64122;51.988;5.892;2023-06-26T08:17:41;32.71;32.81
75363;DHT22;64122;51.988;5.892;2023-06-26T08:20:12;33.28;31.48
75363;DHT22;64122;51.988;5.892;2023-06-26T08:22:41;32.43;32.61
75363;DHT22;64122;51.988;5.892;2023-06-26T08:25:11;31.11;34.29
75363;DHT22;64122;51.988;5.892;2023-06-26T08:27:42;30.63;35.39
75363;DHT22;64122;51.988;5.892;2023-06-26T08:30:11;29.78;37.66
75363;DHT22;64122;51.988;5.892;2023-06-26T08:32:41;28.83;39.01
75363;DHT22;64122;51.988;5.892;2023-06-26T08:35:10;27.95;40.56
75363;DHT22;64122;51.988;5.892;2023-06-26T08:37:39;27.31;41.80
75363;DHT22;64122;51.988;5.892;2023-06-26T08:40:09;26.93;43.03
75363;DHT22;64122;51.988;5.892;2023-06-26T08:42:39;29.01;39.39
75363;DHT22;64122;51.988;5.892;2023-06-26T08:45:11;31.20;35.16
75363;DHT22;64122;51.988;5.892;2023-06-26T08:47:41;32.02;33.49
75363;DHT22;64122;51.988;5.892;2023-06-26T08:50:14;31.25;34.41
75363;DHT22;64122;51.988;5.892;2023-06-26T08:52:52;30.23;36.42
75363;DHT22;64122;51.988;5.892;2023-06-26T08:55:23;30.42;35.69
75363;DHT22;64122;51.988;5.892;2023-06-26T08:57:53;31.46;33.32
75363;DHT22;64122;51.988;5.892;2023-06-26T09:00:25;32.32;30.97
75363;DHT22;64122;51.988;5.892;2023-06-26T09:02:55;31.50;32.06
75363;DHT22;64122;51.988;5.892;2023-06-26T09:05:26;30.86;33.42
75363;DHT22;64122;51.988;5.892;2023-06-26T09:07:57;32.26;31.28
75363;DHT22;64122;51.988;5.892;2023-06-26T09:10:27;32.33;30.95
75363;DHT22;64122;51.988;5.892;2023-06-26T09:12:56;31.15;32.84
75363;DHT22;64122;51.988;5.892;2023-06-26T09:15:37;30.50;34.16
75363;DHT22;64122;51.988;5.892;2023-06-26T09:18:07;31.35;32.25
75363;DHT22;64122;51.988;5.892;2023-06-26T09:20:36;32.40;30.45
75363;DHT22;64122;51.988;5.892;2023-06-26T09:23:06;33.73;28.39
75363;DHT22;64122;51.988;5.892;2023-06-26T09:25:38;34.44;26.16
75363;DHT22;64122;51.988;5.892;2023-06-26T09:28:08;34.76;25.30
75363;DHT22;64122;51.988;5.892;2023-06-26T09:30:41;34.34;25.72
75363;DHT22;64122;51.988;5.892;2023-06-26T09:33:14;34.64;25.33
75363;DHT22;64122;51.988;5.892;2023-06-26T09:35:43;34.69;25.14
75363;DHT22;64122;51.988;5.892;2023-06-26T09:38:13;34.82;24.11
75363;DHT22;64122;51.988;5.892;2023-06-26T09:40:44;35.01;23.43
75363;DHT22;64122;51.988;5.892;2023-06-26T09:43:13;35.08;22.73
75363;DHT22;64122;51.988;5.892;2023-06-26T09:45:45;34.73;23.51
75363;DHT22;64122;51.988;5.892;2023-06-26T09:48:14;33.62;24.95
75363;DHT22;64122;51.988;5.892;2023-06-26T09:50:43;32.61;26.59
75363;DHT22;64122;51.988;5.892;2023-06-26T09:53:13;31.29;28.51
75363;DHT22;64122;51.988;5.892;2023-06-26T09:55:44;30.64;30.08
75363;DHT22;64122;51.988;5.892;2023-06-26T09:58:13;31.55;28.61
75363;DHT22;64122;51.988;5.892;2023-06-26T10:00:46;32.30;27.42
75363;DHT22;64122;51.988;5.892;2023-06-26T10:03:15;32.03;27.78
75363;DHT22;64122;51.988;5.892;2023-06-26T10:05:45;30.94;29.32
75363;DHT22;64122;51.988;5.892;2023-06-26T10:08:15;29.79;30.99
75363;DHT22;64122;51.988;5.892;2023-06-26T10:10:46;28.90;32.40
75363;DHT22;64122;51.988;5.892;2023-06-26T10:13:21;28.52;33.31
75363;DHT22;64122;51.988;5.892;2023-06-26T10:15:54;29.42;32.19
75363;DHT22;64122;51.988;5.892;2023-06-26T10:18:24;30.27;30.84
75363;DHT22;64122;51.988;5.892;2023-06-26T10:20:56;30.70;30.00
75363;DHT22;64122;51.988;5.892;2023-06-26T10:23:27;30.62;30.25
75363;DHT22;64122;51.988;5.892;2023-06-26T10:25:59;29.97;30.03
75363;DHT22;64122;51.988;5.892;2023-06-26T10:28:30;29.89;29.75
75363;DHT22;64122;51.988;5.892;2023-06-26T10:31:03;29.94;30.22
75363;DHT22;64122;51.988;5.892;2023-06-26T10:33:33;29.86;29.98
75363;DHT22;64122;51.988;5.892;2023-06-26T10:36:16;29.42;30.46
75363;DHT22;64122;51.988;5.892;2023-06-26T10:38:49;29.16;30.91
75363;DHT22;64122;51.988;5.892;2023-06-26T10:41:22;29.19;30.80
75363;DHT22;64122;51.988;5.892;2023-06-26T10:44:06;29.29;31.40
75363;DHT22;64122;51.988;5.892;2023-06-26T10:46:53;29.26;30.67
75363;DHT22;64122;51.988;5.892;2023-06-26T10:49:25;29.09;30.13
75363;DHT22;64122;51.988;5.892;2023-06-26T10:51:55;28.88;30.12
75363;DHT22;64122;51.988;5.892;2023-06-26T10:54:30;28.74;30.92
75363;DHT22;64122;51.988;5.892;2023-06-26T10:57:02;28.78;30.70
75363;DHT22;64122;51.988;5.892;2023-06-26T10:59:32;28.38;30.64
75363;DHT22;64122;51.988;5.892;2023-06-26T11:02:05;27.97;30.57
75363;DHT22;64122;51.988;5.892;2023-06-26T11:04:39;27.93;30.50
75363;DHT22;64122;51.988;5.892;2023-06-26T11:07:16;28.09;30.11
75363;DHT22;64122;51.988;5.892;2023-06-26T11:09:57;28.09;30.82
75363;DHT22;64122;51.988;5.892;2023-06-26T11:12:36;27.98;31.59
75363;DHT22;64122;51.988;5.892;2023-06-26T11:15:08;28.16;31.19
75363;DHT22;64122;51.988;5.892;2023-06-26T11:17:40;28.30;31.16
75363;DHT22;64122;51.988;5.892;2023-06-26T11:20:11;28.44;30.99
75363;DHT22;64122;51.988;5.892;2023-06-26T11:22:42;28.49;30.24
75363;DHT22;64122;51.988;5.892;2023-06-26T11:25:11;28.27;30.65
75363;DHT22;64122;51.988;5.892;2023-06-26T11:27:41;28.21;31.09
75363;DHT22;64122;51.988;5.892;2023-06-26T11:30:22;28.16;29.57
75363;DHT22;64122;51.988;5.892;2023-06-26T11:33:02;27.88;29.17
75363;DHT22;64122;51.988;5.892;2023-06-26T11:35:32;27.71;29.65
75363;DHT22;64122;51.988;5.892;2023-06-26T11:38:03;27.59;30.15
75363;DHT22;64122;51.988;5.892;2023-06-26T11:40:33;27.70;30.65
75363;DHT22;64122;51.988;5.892;2023-06-26T11:43:06;27.72;30.01
75363;DHT22;64122;51.988;5.892;2023-06-26T11:45:35;27.84;29.77
75363;DHT22;64122;51.988;5.892;2023-06-26T11:48:07;27.98;29.95
75363;DHT22;64122;51.988;5.892;2023-06-26T11:50:37;27.96;30.13
75363;DHT22;64122;51.988;5.892;2023-06-26T11:53:07;28.06;30.36
75363;DHT22;64122;51.988;5.892;2023-06-26T11:55:41;28.15;30.09
75363;DHT22;64122;51.988;5.892;2023-06-26T11:58:13;27.91;30.85
75363;DHT22;64122;51.988;5.892;2023-06-26T12:00:42;27.76;30.51
75363;DHT22;64122;51.988;5.892;2023-06-26T12:03:14;27.50;30.97
75363;DHT22;64122;51.988;5.892;2023-06-26T12:05:44;27.49;30.59
75363;DHT22;64122;51.988;5.892;2023-06-26T12:08:14;27.54;30.38
75363;DHT22;64122;51.988;5.892;2023-06-26T12:10:44;27.71;30.06
75363;DHT22;64122;51.988;5.892;2023-06-26T12:13:14;27.99;30.19
75363;DHT22;64122;51.988;5.892;2023-06-26T12:15:43;28.13;30.39
75363;DHT22;64122;51.988;5.892;2023-06-26T12:18:15;28.17;30.19
75363;DHT22;64122;51.988;5.892;2023-06-26T12:20:44;27.93;30.88
75363;DHT22;64122;51.988;5.892;2023-06-26T12:23:13;27.99;30.28
75363;DHT22;64122;51.988;5.892;2023-06-26T12:25:43;27.87;30.29
75363;DHT22;64122;51.988;5.892;2023-06-26T12:28:17;27.46;30.90
75363;DHT22;64122;51.988;5.892;2023-06-26T12:30:46;27.51;31.06
75363;DHT22;64122;51.988;5.892;2023-06-26T12:33:18;27.39;30.99
75363;DHT22;64122;51.988;5.892;2023-06-26T12:35:47;27.50;30.92
75363;DHT22;64122;51.988;5.892;2023-06-26T12:38:16;27.82;30.33
75363;DHT22;64122;51.988;5.892;2023-06-26T12:40:46;28.02;30.41
75363;DHT22;64122;51.988;5.892;2023-06-26T12:43:23;27.85;30.42
75363;DHT22;64122;51.988;5.892;2023-06-26T12:45:56;27.72;30.36
75363;DHT22;64122;51.988;5.892;2023-06-26T12:48:39;27.72;30.48
75363;DHT22;64122;51.988;5.892;2023-06-26T12:51:10;27.82;30.49
75363;DHT22;64122;51.988;5.892;2023-06-26T12:53:40;27.69;30.88
75363;DHT22;64122;51.988;5.892;2023-06-26T12:56:10;27.61;31.10
75363;DHT22;64122;51.988;5.892;2023-06-26T12:58:39;27.36;31.50
75363;DHT22;64122;51.988;5.892;2023-06-26T13:01:08;27.40;31.50
75363;DHT22;64122;51.988;5.892;2023-06-26T13:03:43;27.46;31.61
75363;DHT22;64122;51.988;5.892;2023-06-26T13:06:12;27.34;31.45
75363;DHT22;64122;51.988;5.892;2023-06-26T13:08:42;27.17;31.89
75363;DHT22;64122;51.988;5.892;2023-06-26T13:11:11;27.05;32.17
75363;DHT22;64122;51.988;5.892;2023-06-26T13:13:43;27.02;31.54
75363;DHT22;64122;51.988;5.892;2023-06-26T13:16:12;26.98;31.18
75363;DHT22;64122;51.988;5.892;2023-06-26T13:18:44;27.24;30.99
75363;DHT22;64122;51.988;5.892;2023-06-26T13:21:14;27.28;30.32
75363;DHT22;64122;51.988;5.892;2023-06-26T13:23:44;27.19;30.82
75363;DHT22;64122;51.988;5.892;2023-06-26T13:26:13;27.38;30.61
75363;DHT22;64122;51.988;5.892;2023-06-26T13:28:43;27.35;30.74
75363;DHT22;64122;51.988;5.892;2023-06-26T13:31:12;27.34;30.67
75363;DHT22;64122;51.988;5.892;2023-06-26T13:33:44;27.20;29.99
75363;DHT22;64122;51.988;5.892;2023-06-26T13:36:14;26.81;30.56
75363;DHT22;64122;51.988;5.892;2023-06-26T13:38:44;26.70;30.88
75363;DHT22;64122;51.988;5.892;2023-06-26T13:41:15;26.61;31.10
75363;DHT22;64122;51.988;5.892;2023-06-26T13:43:47;26.27;31.70
75363;DHT22;64122;51.988;5.892;2023-06-26T13:46:16;26.20;32.31
75363;DHT22;64122;51.988;5.892;2023-06-26T13:48:48;26.15;32.01
75363;DHT22;64122;51.988;5.892;2023-06-26T13:51:17;26.20;32.18
75363;DHT22;64122;51.988;5.892;2023-06-26T13:53:47;26.34;31.30
75363;DHT22;64122;51.988;5.892;2023-06-26T13:56:16;26.53;30.88
75363;DHT22;64122;51.988;5.892;2023-06-26T13:58:45;26.66;30.89
75363;DHT22;64122;51.988;5.892;2023-06-26T14:01:14;26.63;31.03
75363;DHT22;64122;51.988;5.892;2023-06-26T14:03:43;26.70;30.37
75363;DHT22;64122;51.988;5.892;2023-06-26T14:06:15;26.79;30.14
75363;DHT22;64122;51.988;5.892;2023-06-26T14:08:44;26.77;30.29
75363;DHT22;64122;51.988;5.892;2023-06-26T14:11:13;26.86;29.33
75363;DHT22;64122;51.988;5.892;2023-06-26T14:13:43;26.69;29.32
75363;DHT22;64122;51.988;5.892;2023-06-26T14:16:12;26.63;29.82
75363;DHT22;64122;51.988;5.892;2023-06-26T14:18:44;26.45;29.71
75363;DHT22;64122;51.988;5.892;2023-06-26T14:21:17;26.46;29.58
75363;DHT22;64122;51.988;5.892;2023-06-26T14:23:47;26.52;29.28
75363;DHT22;64122;51.988;5.892;2023-06-26T14:26:16;26.53;28.58
75363;DHT22;64122;51.988;5.892;2023-06-26T14:28:45;26.39;28.87
75363;DHT22;64122;51.988;5.892;2023-06-26T14:31:14;26.36;29.45
75363;DHT22;64122;51.988;5.892;2023-06-26T14:33:43;26.40;29.52
75363;DHT22;64122;51.988;5.892;2023-06-26T14:36:13;26.46;29.87
75363;DHT22;64122;51.988;5.892;2023-06-26T14:38:44;26.46;29.64
75363;DHT22;64122;51.988;5.892;2023-06-26T14:41:14;26.46;29.52
75363;DHT22;64122;51.988;5.892;2023-06-26T14:43:43;26.42;29.74
75363;DHT22;64122;51.988;5.892;2023-06-26T14:46:12;26.43;30.22
75363;DHT22;64122;51.988;5.892;2023-06-26T14:48:41;26.30;31.10
75363;DHT22;64122;51.988;5.892;2023-06-26T14:51:10;26.13;31.49
75363;DHT22;64122;51.988;5.892;2023-06-26T14:53:40;25.95;31.76
75363;DHT22;64122;51.988;5.892;2023-06-26T14:56:11;25.90;31.98
75363;DHT22;64122;51.988;5.892;2023-06-26T14:58:40;25.97;31.33
75363;DHT22;64122;51.988;5.892;2023-06-26T15:01:10;25.83;31.32
75363;DHT22;64122;51.988;5.892;2023-06-26T15:03:41;25.78;31.11
75363;DHT22;64122;51.988;5.892;2023-06-26T15:06:10;25.78;31.03
75363;DHT22;64122;51.988;5.892;2023-06-26T15:08:39;25.78;31.46
75363;DHT22;64122;51.988;5.892;2023-06-26T15:11:11;25.86;32.15
75363;DHT22;64122;51.988;5.892;2023-06-26T15:13:40;25.77;32.31
75363;DHT22;64122;51.988;5.892;2023-06-26T15:16:09;25.79;32.94
75363;DHT22;64122;51.988;5.892;2023-06-26T15:18:38;25.83;33.34
75363;DHT22;64122;51.988;5.892;2023-06-26T15:21:07;25.78;33.67
75363;DHT22;64122;51.988;5.892;2023-06-26T15:23:36;25.90;33.74
75363;DHT22;64122;51.988;5.892;2023-06-26T15:26:06;25.96;33.41
75363;DHT22;64122;51.988;5.892;2023-06-26T15:28:38;25.83;33.47
75363;DHT22;64122;51.988;5.892;2023-06-26T15:31:07;25.81;33.55
75363;DHT22;64122;51.988;5.892;2023-06-26T15:33:36;25.79;33.52
75363;DHT22;64122;51.988;5.892;2023-06-26T15:36:06;25.69;33.67
75363;DHT22;64122;51.988;5.892;2023-06-26T15:38:35;25.67;33.42
75363;DHT22;64122;51.988;5.892;2023-06-26T15:41:05;25.58;33.19
75363;DHT22;64122;51.988;5.892;2023-06-26T15:43:34;25.42;33.16
75363;DHT22;64122;51.988;5.892;2023-06-26T15:46:08;25.28;33.39
75363;DHT22;64122;51.988;5.892;2023-06-26T15:48:36;25.17;33.54
75363;DHT22;64122;51.988;5.892;2023-06-26T15:51:06;25.29;33.52